Terminal Aerodrome Forecast
Issued by NWS

Home | Current Version | Previous Version | Text Only | Print | Product List | Glossary On
Versions: 1 2 3 4 5 6 7 8 9 10 11 12 13 14 15 16 17 18 19 20 21 22 23 24 25 26 27
756
FTUS44 KMAF 091732
TAFINK
TAF
KINK 091732Z 0918/1018 15009KT P6SM OVC025
     FM092000 11005KT P6SM SCT250
     FM101000 09003KT 3SM BR SKC
     FM101600 22005KT P6SM FEW250=

USA.gov is the U.S. government's official web portal to all federal, state and local government web resources and services.